Time;durP1;ratioP1;P1;durP2;ratioP2;P2;SDS_P1;SDS_P2;PMS_P1;PMS_P2;Temp;Humidity;BMP_temperature;BMP_pressure;BME280_temperature;BME280_humidity;BME280_pressure;Samples;Min_cycle;Max_cycle;Signal;HPM_P1;HPM_P2
2021/12/22 00:02:17;;;;;;;24.67;11.48;;;;;;;-4.53;100.00;101620.88;5076932;28;20479;-48
2021/12/22 00:04:47;;;;;;;20.58;9.30;;;;;;;-4.56;100.00;101628.78;5076995;28;20441;-46
2021/12/22 00:07:14;;;;;;;26.58;10.23;;;;;;;-4.57;100.00;101626.22;5083666;28;20028;-49
2021/12/22 00:09:43;;;;;;;22.38;10.57;;;;;;;-4.58;100.00;101629.75;5078846;28;20032;-49
2021/12/22 00:12:10;;;;;;;36.95;11.27;;;;;;;-4.63;100.00;101623.00;5082547;28;20063;-52
2021/12/22 00:14:36;;;;;;;24.98;9.82;;;;;;;-4.66;100.00;101620.53;5081494;28;20028;-46
2021/12/22 00:17:01;;;;;;;22.58;8.45;;;;;;;-4.63;100.00;101617.81;5080997;28;20314;-53
2021/12/22 00:19:27;;;;;;;19.30;9.38;;;;;;;-4.56;100.00;101621.00;5068795;28;20087;-47
2021/12/22 00:21:52;;;;;;;26.55;9.77;;;;;;;-4.52;100.00;101626.88;5071459;28;20077;-50
2021/12/22 00:24:17;;;;;;;22.67;9.23;;;;;;;-4.55;100.00;101616.66;5071196;28;20040;-47
2021/12/22 00:26:43;;;;;;;19.73;8.90;;;;;;;-4.58;100.00;101615.03;5078554;28;20032;-51
2021/12/22 00:29:09;;;;;;;23.48;9.00;;;;;;;-4.59;100.00;101608.19;5080552;28;20180;-48
2021/12/22 00:31:42;;;;;;;18.92;7.85;;;;;;;-4.64;100.00;101613.56;5078644;28;20036;-47
2021/12/22 00:34:16;;;;;;;22.00;9.15;;;;;;;-4.66;100.00;101605.03;5077362;28;20028;-49
2021/12/22 00:36:41;;;;;;;24.65;10.05;;;;;;;-4.69;100.00;101594.81;5078922;28;20040;-47
2021/12/22 00:39:07;;;;;;;18.73;7.65;;;;;;;-4.71;100.00;101599.19;5074572;28;20040;-48
2021/12/22 00:41:32;;;;;;;17.85;8.10;;;;;;;-4.70;100.00;101600.03;5075383;28;20601;-49
2021/12/22 00:43:57;;;;;;;29.85;11.15;;;;;;;-4.68;100.00;101606.00;5073810;28;20094;-47
2021/12/22 00:46:23;;;;;;;25.33;9.48;;;;;;;-4.73;100.00;101606.19;5079605;28;20358;-47
2021/12/22 00:48:49;;;;;;;28.67;10.82;;;;;;;-4.78;100.00;101597.75;5078520;28;20123;-47
2021/12/22 00:51:14;;;;;;;24.98;10.85;;;;;;;-4.81;100.00;101595.31;5081459;28;20550;-50
2021/12/22 00:53:39;;;;;;;24.90;10.00;;;;;;;-4.82;100.00;101596.22;5079303;28;20036;-48
2021/12/22 00:56:07;;;;;;;22.60;9.32;;;;;;;-4.84;100.00;101595.44;5076100;28;20020;-48
2021/12/22 00:58:32;;;;;;;25.05;8.38;;;;;;;-4.87;100.00;101583.47;5076884;28;20138;-48
2021/12/22 01:00:58;;;;;;;17.23;7.55;;;;;;;-4.90;100.00;101581.03;5081227;28;20036;-50
2021/12/22 01:03:23;;;;;;;20.05;7.68;;;;;;;-4.90;100.00;101578.44;5077991;28;20086;-48
2021/12/22 01:05:48;;;;;;;16.85;8.02;;;;;;;-4.92;100.00;101574.25;5076418;28;20065;-48
2021/12/22 01:08:15;;;;;;;27.15;9.70;;;;;;;-4.94;100.00;101563.13;5072634;28;20036;-49
2021/12/22 01:10:41;;;;;;;23.85;9.57;;;;;;;-4.95;100.00;101571.78;5079631;28;20388;-47
2021/12/22 01:13:07;;;;;;;17.88;7.88;;;;;;;-4.97;100.00;101576.19;5076000;28;21514;-48
2021/12/22 01:15:34;;;;;;;21.13;9.50;;;;;;;-5.01;100.00;101572.88;5079151;28;20389;-52
2021/12/22 01:18:06;;;;;;;20.45;8.82;;;;;;;-5.08;100.00;101572.28;5075980;28;20424;-49
2021/12/22 01:20:38;;;;;;;21.98;8.65;;;;;;;-5.15;100.00;101578.63;5081921;28;20110;-47
2021/12/22 01:23:05;;;;;;;14.52;6.85;;;;;;;-5.16;100.00;101583.84;5077854;28;20374;-46
2021/12/22 01:25:42;;;;;;;14.10;6.47;;;;;;;-5.14;100.00;101577.69;5077049;28;20024;-46
2021/12/22 01:28:08;;;;;;;15.20;6.82;;;;;;;-5.10;100.00;101568.09;5079229;28;20490;-46
2021/12/22 01:30:36;;;;;;;16.08;7.55;;;;;;;-5.07;100.00;101565.38;5072677;28;20108;-49
2021/12/22 01:33:03;;;;;;;19.25;8.38;;;;;;;-5.05;100.00;101558.41;5069955;28;20072;-53
2021/12/22 01:35:32;;;;;;;23.52;7.80;;;;;;;-5.08;100.00;101558.53;5067518;28;20029;-47
2021/12/22 01:37:58;;;;;;;18.17;7.15;;;;;;;-5.12;100.00;101559.53;5080427;28;20028;-49
2021/12/22 01:40:24;;;;;;;10.48;5.50;;;;;;;-5.14;100.00;101567.34;5082007;28;20024;-52
2021/12/22 01:42:51;;;;;;;10.55;5.55;;;;;;;-5.17;100.00;101567.50;5084252;28;20020;-50
2021/12/22 01:45:55;;;;;;;14.82;6.35;;;;;;;-5.23;100.00;101567.75;5082097;28;20028;-50
2021/12/22 01:51:50;;;;;;;11.57;4.53;;;;;;;-5.29;100.00;101570.59;5082115;28;20162;-52
2021/12/22 01:55:02;;;;;;;14.18;5.78;;;;;;;-5.30;100.00;101553.38;5083197;28;20036;-49
2021/12/22 01:57:29;;;;;;;21.42;7.68;;;;;;;-5.31;100.00;101557.72;5085225;28;20035;-51
2021/12/22 01:59:55;;;;;;;12.02;5.43;;;;;;;-5.34;100.00;101554.44;5084122;28;20514;-48
2021/12/22 02:02:20;;;;;;;12.75;5.75;;;;;;;-5.37;100.00;101558.00;5085116;28;20027;-50
2021/12/22 02:04:46;;;;;;;15.38;6.05;;;;;;;-5.44;100.00;101543.63;5082571;28;20131;-51
2021/12/22 02:07:12;;;;;;;19.92;6.13;;;;;;;-5.48;100.00;101542.88;5083811;28;20028;-49
2021/12/22 02:12:05;;;;;;;15.27;6.07;;;;;;;-5.46;100.00;101542.00;5082920;28;20031;-47
2021/12/22 02:14:31;;;;;;;18.40;7.18;;;;;;;-5.48;100.00;101544.63;5082287;28;20046;-50
2021/12/22 02:16:56;;;;;;;12.55;5.50;;;;;;;-5.52;100.00;101546.50;5083017;28;20027;-50
2021/12/22 02:19:21;;;;;;;15.73;4.72;;;;;;;-5.52;100.00;101558.59;5084375;28;20032;-48
2021/12/22 02:21:52;;;;;;;11.27;5.57;;;;;;;-5.57;100.00;101553.59;5084545;28;20548;-48
2021/12/22 02:24:18;;;;;;;10.75;6.00;;;;;;;-5.56;100.00;101551.84;5079193;28;20039;-51
2021/12/22 02:26:52;;;;;;;13.57;5.97;;;;;;;-5.57;100.00;101555.34;5081031;28;20032;-54
2021/12/22 02:29:23;;;;;;;23.13;5.60;;;;;;;-5.55;100.00;101551.81;5081655;28;20031;-48
2021/12/22 02:32:00;;;;;;;17.38;4.90;;;;;;;-5.49;100.00;101548.13;5085938;28;20040;-49
2021/12/22 02:34:26;;;;;;;9.95;4.22;;;;;;;-5.49;100.00;101543.81;5085232;28;20146;-52
2021/12/22 02:36:51;;;;;;;21.45;5.63;;;;;;;-5.48;100.00;101540.31;5079877;28;20047;-47
2021/12/22 02:39:17;;;;;;;18.25;6.07;;;;;;;-5.50;100.00;101538.69;5084975;28;20404;-53
2021/12/22 02:41:42;;;;;;;12.60;5.07;;;;;;;-5.49;100.00;101538.63;5085984;28;20032;-49
2021/12/22 02:44:10;;;;;;;8.32;4.10;;;;;;;-5.45;100.00;101535.91;5081587;28;20078;-49
2021/12/22 02:46:37;;;;;;;15.02;5.47;;;;;;;-5.43;100.00;101537.53;5078958;28;20032;-48
2021/12/22 02:49:06;;;;;;;12.38;4.82;;;;;;;-5.46;100.00;101539.41;5079872;28;20531;-49
2021/12/22 02:51:32;;;;;;;11.20;4.00;;;;;;;-5.49;100.00;101542.97;5078858;28;20032;-46
2021/12/22 02:56:35;;;;;;;8.38;4.82;;;;;;;-5.43;100.00;101547.88;5070548;28;20426;-49
2021/12/22 02:59:15;;;;;;;18.88;5.78;;;;;;;-5.42;100.00;101539.25;5083400;28;20101;-47
2021/12/22 03:04:21;;;;;;;22.52;5.40;;;;;;;-5.43;100.00;101547.03;5081497;28;20094;-50
2021/12/22 03:09:18;;;;;;;13.10;4.47;;;;;;;-5.52;100.00;101540.50;5085181;28;20032;-49
2021/12/22 03:11:44;;;;;;;15.77;4.47;;;;;;;-5.51;100.00;101537.00;5084175;28;20032;-53
2021/12/22 03:14:11;;;;;;;13.73;4.63;;;;;;;-5.51;100.00;101534.44;5084278;28;20036;-50
2021/12/22 03:16:37;;;;;;;12.13;3.85;;;;;;;-5.51;100.00;101529.25;5079232;28;20039;-53
2021/12/22 03:19:03;;;;;;;12.63;5.45;;;;;;;-5.46;100.00;101532.50;5083796;28;20032;-49
2021/12/22 03:21:29;;;;;;;16.30;5.80;;;;;;;-5.45;100.00;101528.16;5084214;28;20489;-50
2021/12/22 03:23:55;;;;;;;8.95;4.85;;;;;;;-5.49;100.00;101535.22;5081340;28;20042;-49
2021/12/22 03:26:23;;;;;;;12.27;4.85;;;;;;;-5.52;100.00;101528.41;5079690;28;20413;-48
2021/12/22 03:28:50;;;;;;;17.25;4.35;;;;;;;-5.55;100.00;101527.69;5080504;28;20216;-50
2021/12/22 03:31:16;;;;;;;18.23;6.43;;;;;;;-5.54;100.00;101525.06;5081351;28;20032;-51
2021/12/22 03:33:43;;;;;;;8.77;4.53;;;;;;;-5.54;100.00;101522.47;5085515;28;20082;-48
2021/12/22 03:36:09;;;;;;;10.10;3.70;;;;;;;-5.57;100.00;101520.00;5083673;28;20035;-48
2021/12/22 03:38:36;;;;;;;14.93;5.85;;;;;;;-5.61;100.00;101504.69;5082432;28;20020;-49
2021/12/22 03:41:03;;;;;;;9.25;3.72;;;;;;;-5.61;100.00;101512.44;5081623;28;20161;-48
2021/12/22 03:43:29;;;;;;;13.68;5.32;;;;;;;-5.59;100.00;101503.72;5083717;28;20062;-53
2021/12/22 03:45:54;;;;;;;9.77;3.83;;;;;;;-5.52;100.00;101487.06;5072441;28;20029;-48
2021/12/22 03:48:21;;;;;;;9.80;3.72;;;;;;;-5.46;100.00;101490.31;5082680;28;20086;-50
2021/12/22 03:50:47;;;;;;;13.05;4.07;;;;;;;-5.50;100.00;101490.44;5067140;28;20039;-51
2021/12/22 03:53:13;;;;;;;10.95;4.20;;;;;;;-5.52;100.00;101489.66;5067092;28;20457;-49
2021/12/22 03:55:39;;;;;;;7.85;3.30;;;;;;;-5.55;100.00;101492.38;5068103;28;20422;-50
2021/12/22 03:58:04;;;;;;;14.23;3.33;;;;;;;-5.56;100.00;101500.19;5070654;28;20139;-47
2021/12/22 04:00:30;;;;;;;9.23;4.57;;;;;;;-5.54;100.00;101500.97;5081552;28;20042;-48
2021/12/22 04:02:56;;;;;;;9.63;4.60;;;;;;;-5.54;100.00;101488.88;5067663;28;20032;-49
2021/12/22 04:05:22;;;;;;;7.30;2.70;;;;;;;-5.53;100.00;101493.13;5067224;28;20147;-51
2021/12/22 04:07:48;;;;;;;11.60;4.50;;;;;;;-5.55;100.00;101496.66;5067610;28;20111;-48
2021/12/22 04:10:22;;;;;;;15.73;3.63;;;;;;;-5.54;100.00;101494.03;5070272;28;20024;-51
2021/12/22 04:12:49;;;;;;;9.95;4.20;;;;;;;-5.48;100.00;101488.59;5087650;28;20078;-48
2021/12/22 04:15:15;;;;;;;14.82;5.47;;;;;;;-5.46;100.00;101485.97;5070545;28;20183;-48
2021/12/22 04:17:40;;;;;;;10.02;4.63;;;;;;;-5.46;100.00;101479.97;5086099;28;20107;-49
2021/12/22 04:20:06;;;;;;;13.13;4.38;;;;;;;-5.50;100.00;101476.66;5083343;28;21063;-49
2021/12/22 04:22:31;;;;;;;5.38;3.00;;;;;;;-5.52;100.00;101462.97;5067297;28;20481;-47
2021/12/22 04:24:57;;;;;;;16.00;3.58;;;;;;;-5.47;100.00;101463.63;5067244;28;20067;-50
2021/12/22 04:27:22;;;;;;;10.68;4.50;;;;;;;-5.51;100.00;101464.66;5067127;28;20041;-47
2021/12/22 04:29:48;;;;;;;11.93;3.60;;;;;;;-5.54;100.00;101457.03;5067570;28;20124;-52
2021/12/22 04:32:13;;;;;;;7.68;3.78;;;;;;;-5.56;100.00;101466.56;5070827;28;20059;-51
2021/12/22 04:34:38;;;;;;;9.20;4.28;;;;;;;-5.60;100.00;101460.72;5075069;28;20067;-47
2021/12/22 04:37:04;;;;;;;8.90;3.80;;;;;;;-5.67;100.00;101461.84;5067441;28;20486;-52
2021/12/22 04:39:32;;;;;;;12.80;3.45;;;;;;;-5.76;100.00;101457.88;5067353;28;20036;-46
2021/12/22 04:41:59;;;;;;;6.90;3.08;;;;;;;-5.77;100.00;101470.88;5080724;28;20038;-48
2021/12/22 04:44:24;;;;;;;7.53;4.07;;;;;;;-5.78;100.00;101469.19;5076744;28;20032;-51
2021/12/22 04:46:50;;;;;;;11.07;4.30;;;;;;;-5.78;100.00;101461.44;5068492;28;20032;-49
2021/12/22 04:49:15;;;;;;;7.25;3.83;;;;;;;-5.83;100.00;101453.06;5066876;28;20060;-48
2021/12/22 04:51:48;;;;;;;14.55;4.20;;;;;;;-5.83;100.00;101463.38;5066879;28;20401;-52
2021/12/22 04:56:42;;;;;;;14.63;3.92;;;;;;;-5.85;100.00;101453.09;5070915;28;20028;-49
2021/12/22 04:59:08;;;;;;;9.73;2.70;;;;;;;-5.92;100.00;101456.84;5080231;28;20573;-51
2021/12/22 05:01:33;;;;;;;9.23;3.28;;;;;;;-5.95;100.00;101460.41;5066705;28;20424;-50
2021/12/22 05:03:58;;;;;;;9.82;3.65;;;;;;;-5.94;100.00;101459.53;5067624;28;20587;-51
2021/12/22 05:06:24;;;;;;;7.07;3.30;;;;;;;-5.90;100.00;101454.19;5079933;28;20041;-48
2021/12/22 05:08:50;;;;;;;6.50;2.78;;;;;;;-5.93;100.00;101452.56;5066875;28;20116;-49
2021/12/22 05:11:16;;;;;;;5.75;3.28;;;;;;;-5.98;100.00;101455.38;5075711;28;20516;-49
2021/12/22 05:13:42;;;;;;;7.13;3.03;;;;;;;-6.01;100.00;101452.09;5074210;28;20036;-51
2021/12/22 05:16:15;;;;;;;4.93;2.22;;;;;;;-6.06;100.00;101449.69;5077377;28;20035;-52
2021/12/22 05:18:52;;;;;;;5.22;2.85;;;;;;;-6.08;100.00;101448.06;5079506;28;20072;-49
2021/12/22 05:21:21;;;;;;;14.40;3.35;;;;;;;-6.04;100.00;101452.19;5083648;28;20059;-50
2021/12/22 05:23:48;;;;;;;7.15;2.65;;;;;;;-6.03;100.00;101454.72;5083347;28;20033;-46
2021/12/22 05:26:13;;;;;;;12.27;3.00;;;;;;;-6.03;100.00;101459.88;5082898;28;20098;-49
2021/12/22 05:28:39;;;;;;;6.30;2.75;;;;;;;-6.06;100.00;101454.00;5080712;28;20051;-49
2021/12/22 05:31:04;;;;;;;7.07;3.28;;;;;;;-6.05;100.00;101455.69;5078511;28;20032;-51
2021/12/22 05:33:29;;;;;;;5.82;2.75;;;;;;;-6.00;100.00;101453.75;5080778;28;20461;-46
2021/12/22 05:35:55;;;;;;;6.70;2.30;;;;;;;-5.98;100.00;101452.78;5084519;28;20032;-49
2021/12/22 05:38:21;;;;;;;11.32;2.53;;;;;;;-5.99;100.00;101445.09;5079343;28;20048;-50
2021/12/22 05:40:46;;;;;;;6.93;2.15;;;;;;;-5.98;100.00;101445.03;5080512;28;20068;-47
2021/12/22 05:43:11;;;;;;;4.60;2.13;;;;;;;-5.98;100.00;101436.47;5081329;28;20036;-54
2021/12/22 05:45:37;;;;;;;7.20;2.60;;;;;;;-6.00;100.00;101425.34;5084005;28;20399;-51
2021/12/22 05:48:02;;;;;;;5.40;2.70;;;;;;;-6.03;100.00;101428.88;5082346;28;20040;-49
2021/12/22 05:50:28;;;;;;;4.70;2.78;;;;;;;-6.03;100.00;101418.56;5081203;28;20074;-47
2021/12/22 05:52:53;;;;;;;9.55;2.60;;;;;;;-5.97;100.00;101413.13;5081545;28;20140;-50
2021/12/22 05:55:19;;;;;;;7.80;2.55;;;;;;;-5.97;100.00;101413.13;5081963;28;20426;-48
2021/12/22 05:57:45;;;;;;;9.95;2.92;;;;;;;-5.95;100.00;101413.91;5078603;28;20477;-48
2021/12/22 06:00:11;;;;;;;6.22;3.55;;;;;;;-5.97;100.00;101407.97;5074277;28;20028;-46
2021/12/22 06:02:36;;;;;;;6.88;3.35;;;;;;;-6.01;100.00;101403.03;5080994;28;20146;-46
2021/12/22 06:05:01;;;;;;;10.10;2.70;;;;;;;-6.07;100.00;101400.66;5082308;28;20042;-51
2021/12/22 06:07:27;;;;;;;7.05;2.97;;;;;;;-6.04;100.00;101406.56;5079163;28;20036;-48
2021/12/22 06:09:52;;;;;;;10.52;1.88;;;;;;;-6.02;100.00;101409.91;5081162;28;20040;-52
2021/12/22 06:12:18;;;;;;;9.40;2.42;;;;;;;-6.02;100.00;101404.72;5082631;28;20024;-47
2021/12/22 06:14:43;;;;;;;5.10;2.38;;;;;;;-5.98;100.00;101405.47;5084085;28;20165;-48
2021/12/22 06:17:08;;;;;;;4.20;1.67;;;;;;;-6.01;100.00;101400.44;5082283;28;20028;-47
2021/12/22 06:19:34;;;;;;;7.35;2.47;;;;;;;-6.03;100.00;101391.91;5081454;28;20024;-49
2021/12/22 06:22:00;;;;;;;5.60;2.90;;;;;;;-6.03;100.00;101387.56;5079993;28;20024;-52
2021/12/22 06:24:25;;;;;;;12.27;2.85;;;;;;;-6.02;100.00;101389.25;5081297;28;20032;-51
2021/12/22 06:26:50;;;;;;;3.63;1.90;;;;;;;-6.00;100.00;101390.03;5082644;28;20060;-49
2021/12/22 06:29:16;;;;;;;3.88;2.15;;;;;;;-6.01;100.00;101396.09;5085183;28;20123;-47
2021/12/22 06:31:41;;;;;;;9.88;3.25;;;;;;;-6.06;100.00;101392.88;5072370;28;20089;-48
2021/12/22 06:34:07;;;;;;;3.63;2.50;;;;;;;-6.11;100.00;101399.97;5081121;28;20229;-49
2021/12/22 06:36:32;;;;;;;7.40;1.98;;;;;;;-6.23;100.00;101396.09;5069436;28;20378;-48
2021/12/22 06:38:57;;;;;;;17.40;2.40;;;;;;;-6.25;100.00;101394.50;5069516;28;20036;-50
2021/12/22 06:41:23;;;;;;;8.63;3.00;;;;;;;-6.18;100.00;101391.59;5069752;28;20032;-50
2021/12/22 06:43:48;;;;;;;9.75;3.05;;;;;;;-6.12;100.00;101398.25;5085737;28;20040;-47
2021/12/22 06:46:14;;;;;;;6.93;3.63;;;;;;;-6.07;100.00;101395.50;5081906;28;20028;-48
2021/12/22 06:48:39;;;;;;;6.60;2.95;;;;;;;-6.08;100.00;101386.09;5069328;28;20477;-47
2021/12/22 06:51:06;;;;;;;5.57;2.88;;;;;;;-6.12;100.00;101377.59;5068781;28;20414;-51
2021/12/22 06:53:34;;;;;;;5.00;3.15;;;;;;;-6.12;100.00;101382.78;5071355;28;20213;-49
2021/12/22 06:56:00;;;;;;;6.10;3.83;;;;;;;-6.10;100.00;101373.22;5086570;28;20028;-47
2021/12/22 06:58:26;;;;;;;11.43;2.90;;;;;;;-6.15;100.00;101368.25;5082315;28;20392;-46
2021/12/22 07:00:51;;;;;;;6.50;2.35;;;;;;;-6.22;100.00;101366.84;5070353;28;20032;-46
2021/12/22 07:03:17;;;;;;;6.18;2.58;;;;;;;-6.23;100.00;101369.47;5082192;28;20043;-51
2021/12/22 07:05:42;;;;;;;6.03;3.45;;;;;;;-6.21;100.00;101365.91;5084247;28;20032;-47
2021/12/22 07:08:07;;;;;;;10.18;2.47;;;;;;;-6.13;100.00;101357.88;5085432;28;20123;-47
2021/12/22 07:10:33;;;;;;;8.10;2.80;;;;;;;-6.11;100.00;101365.56;5078202;28;20472;-49
2021/12/22 07:12:58;;;;;;;6.63;2.30;;;;;;;-5.93;100.00;101363.03;5068839;28;20173;-50
2021/12/22 07:15:23;;;;;;;5.35;2.60;;;;;;;-5.64;100.00;101362.69;5080591;28;20469;-49
2021/12/22 07:17:50;;;;;;;7.75;3.80;;;;;;;-5.41;100.00;101365.13;5081345;28;20118;-49
2021/12/22 07:20:16;;;;;;;15.63;4.03;;;;;;;-5.16;100.00;101369.22;5078231;28;20027;-50
2021/12/22 07:22:42;;;;;;;7.00;4.20;;;;;;;-4.98;100.00;101383.06;5078794;28;20031;-51
2021/12/22 07:25:08;;;;;;;13.00;4.50;;;;;;;-4.88;100.00;101384.31;5083104;28;20032;-47
2021/12/22 07:27:34;;;;;;;7.68;3.70;;;;;;;-4.80;100.00;101379.66;5083885;28;20034;-51
2021/12/22 07:30:01;;;;;;;4.35;2.75;;;;;;;-4.85;100.00;101379.03;5085169;28;20105;-52
2021/12/22 07:32:27;;;;;;;6.43;2.72;;;;;;;-5.01;100.00;101378.88;5075575;28;20036;-48
2021/12/22 07:35:17;;;;;;;5.18;2.67;;;;;;;-4.96;100.00;101391.59;5077718;28;20043;-50
2021/12/22 07:37:50;;;;;;;5.67;2.60;;;;;;;-4.83;100.00;101393.59;5080611;28;20405;-47
2021/12/22 07:40:19;;;;;;;10.45;3.35;;;;;;;-4.82;100.00;101404.75;5072317;28;20703;-49
2021/12/22 07:42:45;;;;;;;6.32;2.63;;;;;;;-4.89;100.00;101406.78;5077240;28;20036;-48
2021/12/22 07:45:11;;;;;;;6.13;3.30;;;;;;;-4.97;100.00;101408.03;5085725;28;20115;-51
2021/12/22 07:47:38;;;;;;;5.70;3.10;;;;;;;-5.05;100.00;101405.78;5082307;28;20048;-47
2021/12/22 07:50:06;;;;;;;6.15;3.10;;;;;;;-5.01;100.00;101414.25;5075272;28;20035;-49
2021/12/22 07:52:31;;;;;;;5.82;3.45;;;;;;;-4.90;100.00;101405.13;5073616;28;20057;-48
2021/12/22 07:54:57;;;;;;;21.85;5.32;;;;;;;-4.80;100.00;101408.13;5067892;28;20331;-52
2021/12/22 07:57:23;;;;;;;7.82;2.90;;;;;;;-4.84;100.00;101399.66;5074540;28;20621;-47
2021/12/22 07:59:49;;;;;;;10.23;3.15;;;;;;;-4.91;100.00;101402.59;5083995;28;20024;-48
2021/12/22 08:02:14;;;;;;;7.75;2.95;;;;;;;-5.01;100.00;101396.13;5084675;28;20562;-50
2021/12/22 08:04:40;;;;;;;11.35;3.15;;;;;;;-5.07;100.00;101392.91;5078091;28;20066;-52
2021/12/22 08:07:05;;;;;;;12.43;4.47;;;;;;;-4.92;100.00;101398.31;5071323;28;20548;-48
2021/12/22 08:09:31;;;;;;;8.00;3.22;;;;;;;-4.71;100.00;101399.09;5073991;28;20389;-47
2021/12/22 08:12:04;;;;;;;6.90;3.15;;;;;;;-4.59;100.00;101395.94;5082680;28;20432;-51
2021/12/22 08:14:33;;;;;;;15.18;2.92;;;;;;;-4.68;100.00;101397.19;5077814;28;20036;-46
2021/12/22 08:16:59;;;;;;;9.75;2.97;;;;;;;-4.65;100.00;101402.22;5077472;28;20051;-51
2021/12/22 08:19:24;;;;;;;16.58;2.65;;;;;;;-4.52;100.00;101396.50;5071641;28;20419;-49
2021/12/22 08:21:49;;;;;;;9.18;3.65;;;;;;;-4.55;100.00;101389.69;5069265;28;20059;-48
2021/12/22 08:24:15;;;;;;;8.45;2.53;;;;;;;-4.66;100.00;101379.84;5076486;28;20020;-51
2021/12/22 08:26:41;;;;;;;4.68;1.80;;;;;;;-4.66;100.00;101379.84;5081706;28;20111;-52
2021/12/22 08:29:06;;;;;;;12.20;4.60;;;;;;;-4.58;100.00;101384.69;5079952;28;20114;-49
2021/12/22 08:31:32;;;;;;;9.63;4.22;;;;;;;-4.32;100.00;101392.97;5079778;28;20039;-47
2021/12/22 08:33:57;;;;;;;14.40;5.22;;;;;;;-4.19;100.00;101391.47;5078243;28;20103;-51
2021/12/22 08:39:08;;;;;;;11.13;5.13;;;;;;;-4.12;100.00;101407.56;5079784;28;20516;-47
2021/12/22 08:41:37;;;;;;;11.30;3.60;;;;;;;-4.08;100.00;101402.16;5080684;28;20028;-53
2021/12/22 08:44:05;;;;;;;12.85;4.22;;;;;;;-4.05;100.00;101407.19;5079465;28;20047;-50
2021/12/22 08:46:33;;;;;;;9.88;4.13;;;;;;;-4.09;100.00;101392.69;5077651;28;20035;-51
2021/12/22 08:48:59;;;;;;;14.43;5.85;;;;;;;-4.12;100.00;101394.59;5076636;28;20044;-55
2021/12/22 08:51:25;;;;;;;12.20;5.20;;;;;;;-4.11;100.00;101391.09;5070370;28;20036;-49
2021/12/22 08:53:54;;;;;;;16.40;5.30;;;;;;;-4.07;100.00;101388.28;5078236;28;20043;-49
2021/12/22 08:56:21;;;;;;;12.45;4.53;;;;;;;-3.96;100.00;101387.75;5083504;28;20027;-53
2021/12/22 08:58:46;;;;;;;14.73;4.47;;;;;;;-3.79;100.00;101390.38;5075786;28;20125;-50
2021/12/22 09:01:11;;;;;;;10.73;4.88;;;;;;;-3.63;100.00;101393.03;5080660;28;20070;-52
2021/12/22 09:03:37;;;;;;;10.50;4.15;;;;;;;-3.54;100.00;101391.72;5082794;28;20028;-48
2021/12/22 09:06:03;;;;;;;10.00;5.05;;;;;;;-3.46;100.00;101399.09;5083548;28;20043;-48
2021/12/22 09:08:28;;;;;;;11.25;3.97;;;;;;;-3.38;100.00;101387.44;5075875;28;20032;-52
2021/12/22 09:10:54;;;;;;;9.82;2.95;;;;;;;-3.36;100.00;101385.56;5074433;28;20410;-53
2021/12/22 09:13:20;;;;;;;10.43;3.72;;;;;;;-3.27;100.00;101380.84;5075331;28;20139;-52
2021/12/22 09:15:47;;;;;;;8.90;2.85;;;;;;;-3.17;100.00;101379.47;5071290;28;20051;-54
2021/12/22 09:18:12;;;;;;;8.38;3.78;;;;;;;-3.00;100.00;101374.19;5076830;28;20035;-49
2021/12/22 09:20:38;;;;;;;3.85;1.95;;;;;;;-2.95;100.00;101372.19;5077136;28;20419;-50
2021/12/22 09:23:04;;;;;;;9.90;3.75;;;;;;;-2.86;100.00;101368.28;5080693;28;20039;-53
2021/12/22 09:25:29;;;;;;;9.85;2.30;;;;;;;-2.74;100.00;101362.41;5079823;28;20455;-46
2021/12/22 09:27:55;;;;;;;9.70;1.88;;;;;;;-2.56;100.00;101360.56;5078279;28;20043;-47
2021/12/22 09:30:20;;;;;;;11.23;3.17;;;;;;;-2.36;100.00;101356.03;5072536;28;20036;-50
2021/12/22 09:32:46;;;;;;;7.03;4.00;;;;;;;-2.31;100.00;101356.59;5077205;28;20039;-48
2021/12/22 09:35:11;;;;;;;4.22;2.05;;;;;;;-2.29;100.00;101345.19;5079500;28;20064;-48
2021/12/22 09:37:37;;;;;;;4.20;1.83;;;;;;;-2.27;100.00;101340.75;5071960;28;20040;-50
2021/12/22 09:40:04;;;;;;;11.70;2.35;;;;;;;-2.22;100.00;101330.94;5081089;28;20147;-48
2021/12/22 09:42:30;;;;;;;4.97;2.17;;;;;;;-2.15;100.00;101331.41;5068997;28;20037;-50
2021/12/22 09:44:59;;;;;;;6.28;2.55;;;;;;;-2.03;100.00;101343.72;5069311;28;20032;-50
2021/12/22 09:47:29;;;;;;;10.38;2.40;;;;;;;-1.83;100.00;101333.94;5073636;28;20374;-50
2021/12/22 09:50:07;;;;;;;4.18;2.00;;;;;;;-1.70;100.00;101341.81;5071891;28;20063;-50
2021/12/22 09:52:34;;;;;;;12.00;2.13;;;;;;;-1.48;100.00;101341.38;5079194;28;20492;-46
2021/12/22 09:55:01;;;;;;;7.70;2.95;;;;;;;-1.33;100.00;101353.47;5071877;28;20032;-54
2021/12/22 09:57:27;;;;;;;4.10;1.40;;;;;;;-1.34;100.00;101344.00;5077830;28;20488;-50
2021/12/22 09:59:56;;;;;;;3.65;2.42;;;;;;;-1.29;100.00;101330.69;5072274;28;20320;-51
2021/12/22 10:02:25;;;;;;;4.25;1.65;;;;;;;-1.29;100.00;101335.91;5083683;28;20074;-45
2021/12/22 10:04:51;;;;;;;4.85;2.30;;;;;;;-1.30;100.00;101337.66;5087667;28;20611;-45
2021/12/22 10:07:23;;;;;;;8.75;2.90;;;;;;;-1.27;100.00;101344.44;5077225;28;20028;-47
2021/12/22 10:09:49;;;;;;;6.63;2.78;;;;;;;-1.21;100.00;101342.31;5077157;28;20392;-49
2021/12/22 10:12:26;;;;;;;7.40;3.38;;;;;;;-1.14;100.00;101338.38;5072678;28;20024;-52
2021/12/22 10:14:53;;;;;;;5.05;2.78;;;;;;;-1.14;100.00;101327.97;5083520;28;20036;-48
2021/12/22 10:17:37;;;;;;;11.48;3.20;;;;;;;-1.13;100.00;101329.66;5080754;28;20036;-46
2021/12/22 10:20:12;;;;;;;6.60;2.72;;;;;;;-1.06;100.00;101324.06;5083778;28;20458;-52
2021/12/22 10:22:46;;;;;;;7.10;3.33;;;;;;;-0.90;100.00;101310.03;5080741;28;20024;-50
2021/12/22 10:25:18;;;;;;;6.50;2.85;;;;;;;-0.79;100.00;101298.09;5075317;28;20036;-48
2021/12/22 10:28:09;;;;;;;9.07;3.33;;;;;;;-0.70;100.00;101282.72;5080310;28;20024;-48
2021/12/22 10:30:42;;;;;;;11.82;2.92;;;;;;;-0.59;100.00;101284.63;5076340;28;20055;-47
2021/12/22 10:33:16;;;;;;;9.70;3.17;;;;;;;-0.51;100.00;101281.53;5076748;28;20062;-47
2021/12/22 10:35:45;;;;;;;8.27;2.75;;;;;;;-0.41;100.00;101285.19;5077511;28;20061;-47
2021/12/22 10:38:12;;;;;;;7.32;2.85;;;;;;;-0.37;100.00;101276.22;5080415;28;20032;-50
2021/12/22 10:40:43;;;;;;;4.28;3.38;;;;;;;-0.25;100.00;101279.81;5076039;28;20028;-49
2021/12/22 10:43:19;;;;;;;13.35;4.32;;;;;;;-0.25;100.00;101283.25;5077824;28;20635;-50
2021/12/22 10:45:53;;;;;;;7.78;3.58;;;;;;;-0.19;100.00;101281.16;5076799;28;20028;-49
2021/12/22 10:51:10;;;;;;;6.95;2.67;;;;;;;-0.16;100.00;101273.97;5082063;28;20117;-48
2021/12/22 10:53:44;;;;;;;7.88;3.22;;;;;;;-0.12;100.00;101272.84;5076605;28;20032;-48
2021/12/22 10:56:20;;;;;;;10.40;3.63;;;;;;;-0.08;100.00;101276.06;5076136;28;20036;-48
2021/12/22 10:58:45;;;;;;;5.22;2.90;;;;;;;-0.05;100.00;101260.25;5077590;28;20036;-49
2021/12/22 11:01:14;;;;;;;8.45;2.50;;;;;;;-0.03;100.00;101256.59;5081512;28;20032;-51
2021/12/22 11:03:48;;;;;;;7.85;2.78;;;;;;;0.07;100.00;101242.91;5082064;28;20159;-46
2021/12/22 11:06:28;;;;;;;5.78;4.28;;;;;;;0.14;100.00;101244.19;5078817;28;20071;-50
2021/12/22 11:09:15;;;;;;;5.18;3.22;;;;;;;0.19;100.00;101231.66;5080286;28;20126;-48
2021/12/22 11:11:42;;;;;;;8.82;2.83;;;;;;;0.29;100.00;101231.88;5073569;28;20499;-49
2021/12/22 11:14:16;;;;;;;7.72;3.60;;;;;;;0.34;100.00;101225.38;5079167;28;20040;-50
2021/12/22 11:17:01;;;;;;;8.27;2.83;;;;;;;0.36;100.00;101215.69;5077671;28;20031;-51
2021/12/22 11:19:52;;;;;;;7.35;3.78;;;;;;;0.41;100.00;101210.13;5078721;28;20032;-49
2021/12/22 11:22:19;;;;;;;8.63;3.75;;;;;;;0.51;100.00;101207.69;5068025;28;20051;-46
2021/12/22 11:24:51;;;;;;;8.98;3.97;;;;;;;0.58;100.00;101204.56;5068556;28;20168;-48
2021/12/22 11:27:20;;;;;;;9.25;3.60;;;;;;;0.65;100.00;101190.13;5071608;28;20679;-48
2021/12/22 11:29:52;;;;;;;13.15;3.72;;;;;;;0.74;100.00;101179.97;5067613;28;20480;-48
2021/12/22 11:32:20;;;;;;;12.75;3.40;;;;;;;0.77;100.00;101169.31;5079076;28;20101;-50
2021/12/22 11:34:51;;;;;;;7.07;4.10;;;;;;;0.84;100.00;101162.69;5075663;28;20047;-49
2021/12/22 11:37:18;;;;;;;10.38;4.15;;;;;;;0.94;100.00;101161.09;5084622;28;20028;-50
2021/12/22 11:39:44;;;;;;;7.88;3.88;;;;;;;1.00;100.00;101151.97;5080802;28;20071;-48